createdAt,value
2019-06-20T00:00:45.165Z,9.58
2019-06-20T00:03:16.552Z,9.50
2019-06-20T00:05:46.200Z,8.88
2019-06-20T00:08:15.584Z,10.58
2019-06-20T00:10:45.051Z,9.68
2019-06-20T00:13:14.363Z,8.88
2019-06-20T00:15:43.692Z,9.03
2019-06-20T00:18:13.228Z,10.20
2019-06-20T00:20:42.546Z,9.83
2019-06-20T00:23:11.932Z,9.43
2019-06-20T00:25:41.352Z,9.67
2019-06-20T00:28:10.691Z,8.28
2019-06-20T00:30:40.632Z,8.60
2019-06-20T00:33:09.959Z,9.75
2019-06-20T00:35:39.303Z,7.17
2019-06-20T00:38:08.610Z,9.13
2019-06-20T00:40:37.930Z,9.28
2019-06-20T00:43:16.911Z,9.13
2019-06-20T00:45:38.266Z,8.45
2019-06-20T00:48:07.560Z,8.25
2019-06-20T00:50:36.889Z,8.08
2019-06-20T00:53:06.217Z,9.03
2019-06-20T00:55:35.517Z,8.98
2019-06-20T00:58:04.914Z,9.08
2019-06-20T01:00:34.310Z,8.58
2019-06-20T01:03:04.074Z,9.93
2019-06-20T01:05:33.484Z,10.40
2019-06-20T01:08:02.815Z,9.15
2019-06-20T01:10:32.147Z,7.62
2019-06-20T01:13:01.540Z,7.83
2019-06-20T01:15:30.849Z,8.33
2019-06-20T01:18:00.179Z,8.65
2019-06-20T01:20:29.547Z,9.53
2019-06-20T01:22:58.928Z,9.08
2019-06-20T01:25:37.055Z,9.45
2019-06-20T01:28:06.730Z,8.35
2019-06-20T01:30:36.099Z,8.60
2019-06-20T01:33:06.376Z,8.90
2019-06-20T01:35:35.808Z,9.13
2019-06-20T01:38:05.481Z,10.38
2019-06-20T01:40:34.805Z,10.13
2019-06-20T01:45:33.731Z,9.25
2019-06-20T01:48:03.102Z,10.50
2019-06-20T01:50:32.484Z,10.85
2019-06-20T01:53:01.823Z,10.75
2019-06-20T01:55:31.197Z,13.65
2019-06-20T01:58:00.595Z,9.65
2019-06-20T02:00:35.732Z,13.30
2019-06-20T02:03:05.373Z,13.83
2019-06-20T02:05:34.816Z,14.67
2019-06-20T02:08:04.332Z,12.10
2019-06-20T02:10:33.669Z,12.60
2019-06-20T02:13:03.051Z,12.75
2019-06-20T02:15:32.368Z,10.80
2019-06-20T02:18:01.844Z,10.55
2019-06-20T02:20:33.885Z,11.83
2019-06-20T02:23:03.383Z,11.93
2019-06-20T02:25:33.120Z,11.60
2019-06-20T02:28:02.544Z,12.75
2019-06-20T02:30:31.924Z,12.17
2019-06-20T02:33:01.329Z,10.85
2019-06-20T02:35:30.638Z,10.80
2019-06-20T02:38:00.059Z,10.08
2019-06-20T02:40:29.602Z,11.35
2019-06-20T02:42:58.998Z,10.10
2019-06-20T02:47:57.884Z,10.08
2019-06-20T02:50:27.529Z,12.37
2019-06-20T02:52:56.994Z,9.15
2019-06-20T02:55:26.310Z,10.98
2019-06-20T02:57:55.687Z,10.65
2019-06-20T03:00:31.082Z,11.15
2019-06-20T03:03:00.411Z,10.08
2019-06-20T03:05:29.720Z,11.40
2019-06-20T03:07:59.053Z,9.43
2019-06-20T03:10:28.420Z,9.73
2019-06-20T03:12:57.834Z,9.93
2019-06-20T03:15:27.130Z,10.30
2019-06-20T03:17:56.457Z,9.63
2019-06-20T03:20:25.832Z,9.65
2019-06-20T03:22:55.161Z,8.40
2019-06-20T03:25:24.525Z,8.88
2019-06-20T03:27:53.852Z,8.98
2019-06-20T03:30:23.292Z,9.63
2019-06-20T03:32:52.612Z,10.03
2019-06-20T03:35:22.001Z,10.85
2019-06-20T03:37:51.326Z,10.40
2019-06-20T03:40:20.660Z,10.70
2019-06-20T03:42:49.960Z,8.68
2019-06-20T03:45:19.349Z,10.90
2019-06-20T03:47:48.686Z,10.13
2019-06-20T03:50:18.144Z,7.67
2019-06-20T03:52:49.119Z,8.23
2019-06-20T03:55:18.624Z,8.70
2019-06-20T03:57:47.923Z,8.90
2019-06-20T04:00:19.059Z,13.65
2019-06-20T04:02:48.402Z,13.68
2019-06-20T04:05:17.802Z,10.35
2019-06-20T04:07:47.112Z,16.25
2019-06-20T04:10:16.596Z,13.08
2019-06-20T04:15:19.427Z,10.78
2019-06-20T04:17:46.702Z,10.90
2019-06-20T04:20:16.123Z,13.22
2019-06-20T04:23:05.519Z,14.20
2019-06-20T04:25:34.934Z,17.42
2019-06-20T04:28:04.392Z,12.00
2019-06-20T04:30:33.709Z,8.85
2019-06-20T04:33:03.016Z,8.18
2019-06-20T04:35:32.356Z,12.70
2019-06-20T04:38:01.662Z,15.32
2019-06-20T04:43:00.604Z,11.95
2019-06-20T04:45:35.553Z,10.68
2019-06-20T04:48:02.571Z,7.87
2019-06-20T04:50:31.886Z,8.70
2019-06-20T04:53:01.216Z,13.58
2019-06-20T04:58:00.149Z,12.23
2019-06-20T05:00:29.591Z,10.90
2019-06-20T05:02:58.969Z,10.60
2019-06-20T05:05:28.266Z,9.25
2019-06-20T05:10:27.250Z,11.48
2019-06-20T05:12:56.572Z,8.90
2019-06-20T05:17:55.499Z,9.30
2019-06-20T05:20:24.875Z,10.72
2019-06-20T05:22:54.212Z,8.95
2019-06-20T05:25:23.521Z,6.95
2019-06-20T05:27:52.854Z,6.10
2019-06-20T05:30:22.821Z,7.65
2019-06-20T05:32:52.390Z,6.47
2019-06-20T05:35:21.979Z,6.80
2019-06-20T05:37:51.294Z,6.25
2019-06-20T05:40:20.782Z,5.85
2019-06-20T05:42:50.370Z,6.60
2019-06-20T05:45:19.915Z,6.35
2019-06-20T05:47:49.926Z,4.63
2019-06-20T05:50:20.544Z,5.83
2019-06-20T05:52:49.844Z,4.58
2019-06-20T05:55:19.259Z,4.15
2019-06-20T05:57:48.681Z,3.87
2019-06-20T06:00:18.634Z,4.87
2019-06-20T06:02:48.023Z,2.95
2019-06-20T06:05:17.579Z,3.98
2019-06-20T06:07:46.912Z,3.70
2019-06-20T06:12:45.822Z,3.17
2019-06-20T06:15:15.456Z,2.83
2019-06-20T06:17:44.789Z,3.20
2019-06-20T06:20:15.790Z,3.05
2019-06-20T06:22:45.134Z,3.80
2019-06-20T06:25:14.978Z,4.50
2019-06-20T06:27:44.374Z,5.70
2019-06-20T06:30:15.199Z,4.75
2019-06-20T06:32:44.598Z,3.92
2019-06-20T06:35:14.234Z,3.22
2019-06-20T06:37:43.702Z,3.37
2019-06-20T06:40:15.039Z,10.35
2019-06-20T06:42:44.526Z,5.67
2019-06-20T06:45:15.681Z,3.50
2019-06-20T06:47:45.030Z,3.85
2019-06-20T06:50:14.901Z,3.47
2019-06-20T06:52:44.332Z,4.20
2019-06-20T06:55:14.217Z,3.80
2019-06-20T06:57:43.546Z,4.35
2019-06-20T07:00:15.408Z,3.92
2019-06-20T07:02:44.771Z,3.67
2019-06-20T07:07:43.614Z,4.33
2019-06-20T07:10:13.599Z,8.25
2019-06-20T07:12:42.898Z,5.15
2019-06-20T07:15:14.277Z,4.33
2019-06-20T07:17:43.679Z,4.03
2019-06-20T07:20:15.291Z,3.13
2019-06-20T07:22:44.249Z,2.58
2019-06-20T07:25:14.017Z,2.92
2019-06-20T07:27:43.317Z,2.08
2019-06-20T07:30:13.295Z,2.10
2019-06-20T07:32:42.616Z,2.15
2019-06-20T07:35:12.123Z,2.07
2019-06-20T07:37:41.492Z,2.63
2019-06-20T07:40:12.489Z,2.60
2019-06-20T07:42:41.793Z,2.10
2019-06-20T07:45:13.125Z,1.98
2019-06-20T07:47:42.623Z,2.20
2019-06-20T07:50:12.517Z,2.15
2019-06-20T07:52:41.822Z,2.12
2019-06-20T07:55:11.309Z,1.80
2019-06-20T07:57:40.597Z,1.93
2019-06-20T08:00:11.587Z,1.98
2019-06-20T08:02:41.132Z,2.12
2019-06-20T08:05:11.296Z,1.80
2019-06-20T08:07:40.672Z,1.95
2019-06-20T08:10:12.342Z,1.93
2019-06-20T08:12:42.009Z,2.15
2019-06-20T08:15:15.632Z,1.80
2019-06-20T08:17:44.674Z,1.77
2019-06-20T08:20:14.534Z,1.67
2019-06-20T08:22:43.874Z,1.70
2019-06-20T08:25:13.953Z,4.60
2019-06-20T08:27:49.927Z,1.72
2019-06-20T08:30:31.110Z,2.47
2019-06-20T08:33:03.551Z,1.75
2019-06-20T08:35:32.139Z,1.70
2019-06-20T08:38:03.474Z,1.50
2019-06-20T08:40:36.389Z,1.70
2019-06-20T08:43:06.303Z,1.65
2019-06-20T08:45:38.443Z,1.82
2019-06-20T08:48:07.999Z,1.80
2019-06-20T08:50:37.607Z,1.62
2019-06-20T08:53:07.147Z,1.40
2019-06-20T08:55:36.821Z,1.87
2019-06-20T08:58:07.504Z,2.15
2019-06-20T09:00:37.865Z,1.60
2019-06-20T09:03:07.547Z,1.30
2019-06-20T09:05:37.129Z,1.90
2019-06-20T09:08:11.138Z,1.50
2019-06-20T09:10:41.035Z,1.65
2019-06-20T09:13:11.910Z,1.30
2019-06-20T09:15:45.529Z,1.62
2019-06-20T09:18:14.840Z,1.80
2019-06-20T09:20:44.240Z,1.30
2019-06-20T09:23:13.545Z,1.40
2019-06-20T09:25:42.875Z,1.30
2019-06-20T09:28:12.202Z,1.47
2019-06-20T09:30:41.672Z,1.25
2019-06-20T09:33:11.005Z,1.40
2019-06-20T09:35:40.291Z,1.45
2019-06-20T09:38:09.865Z,1.32
2019-06-20T09:40:40.438Z,1.57
2019-06-20T09:43:09.899Z,1.57
2019-06-20T09:45:39.203Z,1.62
2019-06-20T09:48:08.547Z,1.40
2019-06-20T09:50:37.916Z,1.60
2019-06-20T09:53:07.231Z,6.22
2019-06-20T09:55:36.695Z,1.60
2019-06-20T09:58:06.100Z,8.30
2019-06-20T10:00:36.440Z,1.65
2019-06-20T10:03:06.211Z,1.55
2019-06-20T10:05:35.920Z,1.67
2019-06-20T10:08:05.317Z,1.40
2019-06-20T10:10:35.503Z,1.05
2019-06-20T10:13:05.138Z,1.25
2019-06-20T10:15:37.179Z,1.30
2019-06-20T10:18:06.721Z,1.52
2019-06-20T10:20:38.788Z,1.32
2019-06-20T10:23:07.877Z,1.42
2019-06-20T10:25:38.722Z,1.10
2019-06-20T10:28:08.414Z,1.12
2019-06-20T10:30:37.890Z,1.15
2019-06-20T10:33:07.445Z,1.10
2019-06-20T10:35:36.890Z,0.78
2019-06-20T10:38:06.359Z,1.00
2019-06-20T10:40:35.661Z,0.98
2019-06-20T10:43:05.458Z,1.00
2019-06-20T10:45:35.614Z,0.90
2019-06-20T10:48:05.465Z,0.80
2019-06-20T10:50:34.837Z,0.88
2019-06-20T10:53:04.303Z,0.80
2019-06-20T10:55:33.639Z,1.32
2019-06-20T10:58:03.115Z,2.62
2019-06-20T11:05:30.499Z,0.60
2019-06-20T11:07:59.904Z,0.70
2019-06-20T11:10:29.950Z,2.52
2019-06-20T11:12:59.271Z,0.70
2019-06-20T11:15:30.539Z,4.37
2019-06-20T11:17:59.853Z,0.80
2019-06-20T11:20:29.411Z,0.62
2019-06-20T11:25:27.357Z,0.47
2019-06-20T11:27:56.690Z,0.65
2019-06-20T11:30:28.475Z,0.50
2019-06-20T11:32:57.796Z,1.27
2019-06-20T11:35:27.168Z,0.60
2019-06-20T11:37:56.555Z,0.72
2019-06-20T11:40:26.229Z,0.68
2019-06-20T11:45:25.628Z,0.70
2019-06-20T11:47:54.956Z,0.90
2019-06-20T11:50:24.578Z,0.55
2019-06-20T11:52:53.973Z,0.70
2019-06-20T11:55:23.511Z,0.80
2019-06-20T11:57:52.843Z,0.80
2019-06-20T12:00:23.514Z,0.90
2019-06-20T12:02:52.886Z,0.70
2019-06-20T12:05:23.235Z,0.80
2019-06-20T12:07:52.644Z,1.32
2019-06-20T12:10:22.472Z,0.60
2019-06-20T12:12:51.779Z,0.50
2019-06-20T12:15:23.069Z,1.57
2019-06-20T12:17:52.899Z,0.60
2019-06-20T12:20:22.965Z,0.80
2019-06-20T12:22:55.106Z,0.68
2019-06-20T12:25:25.160Z,0.60
2019-06-20T12:28:04.474Z,0.68
2019-06-20T12:30:41.490Z,0.60
2019-06-20T12:33:12.593Z,0.65
2019-06-20T12:35:44.512Z,0.70
2019-06-20T12:38:15.247Z,0.78
2019-06-20T12:40:46.103Z,0.60
2019-06-20T12:43:15.735Z,0.85
2019-06-20T12:45:45.115Z,0.65
2019-06-20T12:48:14.915Z,1.17
2019-06-20T12:50:45.111Z,0.80
2019-06-20T12:53:14.557Z,0.70
2019-06-20T12:55:45.629Z,0.80
2019-06-20T12:58:14.975Z,0.88
2019-06-20T13:00:45.358Z,0.88
2019-06-20T13:03:15.559Z,0.93
2019-06-20T13:05:45.081Z,0.90
2019-06-20T13:08:15.530Z,0.72
2019-06-20T13:10:46.171Z,1.02
2019-06-20T13:13:15.591Z,0.90
2019-06-20T13:15:44.932Z,0.88
2019-06-20T13:18:14.284Z,0.80
2019-06-20T13:20:44.236Z,0.70
2019-06-20T13:25:42.625Z,0.82
2019-06-20T13:28:12.058Z,0.70
2019-06-20T13:30:43.752Z,0.90
2019-06-20T13:33:12.400Z,1.15
2019-06-20T13:35:42.341Z,0.60
2019-06-20T13:38:12.762Z,0.70
2019-06-20T13:40:43.115Z,0.80
2019-06-20T13:43:12.543Z,0.80
2019-06-20T13:45:42.330Z,0.83
2019-06-20T13:48:11.756Z,0.80
2019-06-20T13:50:41.949Z,0.90
2019-06-20T13:53:11.692Z,6.90
2019-06-20T13:55:42.365Z,0.98
2019-06-20T13:58:12.107Z,1.00
2019-06-20T14:00:44.996Z,0.90
2019-06-20T14:03:12.918Z,0.98
2019-06-20T14:05:42.828Z,0.70
2019-06-20T14:08:12.317Z,0.70
2019-06-20T14:10:44.159Z,1.87
2019-06-20T14:13:19.035Z,0.95
2019-06-20T14:15:44.461Z,0.80
2019-06-20T14:18:14.779Z,0.80
2019-06-20T14:20:44.836Z,0.70
2019-06-20T14:23:14.432Z,0.65
2019-06-20T14:25:43.799Z,0.85
2019-06-20T14:28:13.138Z,0.75
2019-06-20T14:30:44.462Z,0.65
2019-06-20T14:33:13.552Z,0.72
2019-06-20T14:38:13.587Z,0.85
2019-06-20T14:43:13.170Z,0.53
2019-06-20T14:45:43.847Z,1.20
2019-06-20T14:48:13.942Z,0.78
2019-06-20T14:50:44.618Z,0.60
2019-06-20T14:53:14.265Z,0.60
2019-06-20T14:55:44.822Z,0.53
2019-06-20T14:58:14.777Z,0.53
2019-06-20T15:00:45.213Z,0.50
2019-06-20T15:03:15.357Z,0.70
2019-06-20T15:05:46.193Z,0.60
2019-06-20T15:08:15.899Z,0.47
2019-06-20T15:10:46.577Z,0.47
2019-06-20T15:13:16.261Z,0.62
2019-06-20T15:15:46.610Z,0.70
2019-06-20T15:18:16.672Z,0.65
2019-06-20T15:20:46.947Z,0.50
2019-06-20T15:23:17.011Z,0.50
2019-06-20T15:25:47.595Z,0.60
2019-06-20T15:28:17.535Z,0.57
2019-06-20T15:30:47.597Z,0.50
2019-06-20T15:33:17.980Z,0.62
2019-06-20T15:35:49.179Z,0.55
2019-06-20T15:38:18.299Z,0.60
2019-06-20T15:40:49.363Z,0.60
2019-06-20T15:43:18.639Z,0.78
2019-06-20T15:45:49.905Z,0.72
2019-06-20T15:48:18.989Z,0.53
2019-06-20T15:50:49.419Z,0.70
2019-06-20T15:53:18.741Z,0.70
2019-06-20T15:55:48.042Z,0.60
2019-06-20T15:58:17.375Z,0.60
2019-06-20T16:00:46.670Z,0.65
2019-06-20T16:03:17.068Z,0.68
2019-06-20T16:05:46.420Z,0.90
2019-06-20T16:08:15.769Z,0.60
2019-06-20T16:10:45.196Z,0.80
2019-06-20T16:13:15.565Z,0.80
2019-06-20T16:15:45.579Z,0.57
2019-06-20T16:18:14.905Z,1.00
2019-06-20T16:20:44.327Z,1.22
2019-06-20T16:23:13.731Z,0.60
2019-06-20T16:25:44.185Z,0.93
2019-06-20T16:28:13.516Z,0.60
2019-06-20T16:30:42.816Z,0.85
2019-06-20T16:33:24.036Z,0.60
2019-06-20T16:35:43.170Z,1.00
2019-06-20T16:38:12.465Z,0.62
2019-06-20T16:40:44.707Z,0.80
2019-06-20T16:43:14.322Z,0.90
2019-06-20T16:45:44.193Z,0.70
2019-06-20T16:48:14.517Z,0.62
2019-06-20T16:50:43.839Z,0.70
2019-06-20T16:53:13.156Z,0.75
2019-06-20T16:55:42.605Z,0.80
2019-06-20T16:58:12.112Z,0.60
2019-06-20T17:00:47.405Z,0.60
2019-06-20T17:03:16.825Z,0.80
2019-06-20T17:05:46.161Z,0.62
2019-06-20T17:08:18.772Z,0.68
2019-06-20T17:10:49.957Z,0.60
2019-06-20T17:13:21.399Z,0.55
2019-06-20T17:15:50.744Z,0.80
2019-06-20T17:18:20.094Z,0.45
2019-06-20T17:20:49.423Z,0.70
2019-06-20T17:23:18.779Z,0.60
2019-06-20T17:25:48.108Z,1.12
2019-06-20T17:28:17.405Z,0.70
2019-06-20T17:30:46.812Z,0.90
2019-06-20T17:33:16.135Z,0.50
2019-06-20T17:35:45.507Z,0.50
2019-06-20T17:38:14.822Z,0.65
2019-06-20T17:40:44.245Z,0.70
2019-06-20T17:43:13.624Z,0.62
2019-06-20T17:45:43.427Z,0.80
2019-06-20T17:48:12.822Z,0.82
2019-06-20T17:50:42.265Z,0.80
2019-06-20T17:53:11.595Z,0.68
2019-06-20T17:55:41.400Z,0.73
2019-06-20T17:58:10.740Z,0.78
2019-06-20T18:00:40.180Z,0.60
2019-06-20T18:03:09.609Z,0.82
2019-06-20T18:05:39.060Z,0.80
2019-06-20T18:08:14.981Z,0.80
2019-06-20T18:10:39.404Z,0.65
2019-06-20T18:13:08.700Z,0.90
2019-06-20T18:15:38.025Z,1.00
2019-06-20T18:18:07.330Z,0.70
2019-06-20T18:20:36.736Z,1.03
2019-06-20T18:23:06.117Z,0.80
2019-06-20T18:25:35.449Z,1.20
2019-06-20T18:28:04.898Z,0.60
2019-06-20T18:30:37.308Z,0.80
2019-06-20T18:33:06.602Z,0.65
2019-06-20T18:35:35.983Z,0.90
2019-06-20T18:38:05.495Z,0.90
2019-06-20T18:40:34.827Z,0.62
2019-06-20T18:43:04.337Z,0.70
2019-06-20T18:45:33.652Z,0.90
2019-06-20T18:48:02.976Z,0.90
2019-06-20T18:50:32.279Z,0.77
2019-06-20T18:53:02.021Z,0.88
2019-06-20T18:55:31.404Z,1.10
2019-06-20T18:58:00.838Z,0.82
2019-06-20T19:00:34.604Z,0.80
2019-06-20T19:03:01.513Z,0.95
2019-06-20T19:05:30.874Z,0.67
2019-06-20T19:08:00.283Z,1.00
2019-06-20T19:10:33.347Z,1.33
2019-06-20T19:13:01.760Z,1.07
2019-06-20T19:15:31.238Z,1.07
2019-06-20T19:18:00.564Z,1.33
2019-06-20T19:20:29.854Z,1.30
2019-06-20T19:22:59.177Z,0.93
2019-06-20T19:25:28.707Z,1.10
2019-06-20T19:27:58.187Z,1.00
2019-06-20T19:30:30.676Z,0.90
2019-06-20T19:33:00.075Z,0.85
2019-06-20T19:35:29.539Z,1.20
2019-06-20T19:37:59.828Z,1.20
2019-06-20T19:40:32.632Z,1.20
2019-06-20T19:43:01.967Z,1.20
2019-06-20T19:45:31.651Z,1.10
2019-06-20T19:48:00.971Z,4.37
2019-06-20T19:50:30.548Z,3.00
2019-06-20T19:53:00.023Z,1.05
2019-06-20T19:55:29.644Z,1.07
2019-06-20T19:57:59.244Z,1.30
2019-06-20T20:00:28.568Z,1.07
2019-06-20T20:02:58.212Z,1.10
2019-06-20T20:05:27.540Z,1.10
2019-06-20T20:07:59.431Z,1.20
2019-06-20T20:10:37.844Z,1.20
2019-06-20T20:13:07.159Z,1.40
2019-06-20T20:15:36.498Z,1.30
2019-06-20T20:18:05.949Z,1.40
2019-06-20T20:20:35.348Z,1.40
2019-06-20T20:23:05.094Z,1.40
2019-06-20T20:25:34.642Z,1.22
2019-06-20T20:28:04.634Z,1.30
2019-06-20T20:30:35.018Z,1.37
2019-06-20T20:33:04.948Z,1.47
2019-06-20T20:35:35.765Z,1.47
2019-06-20T20:38:05.473Z,1.40
2019-06-20T20:40:34.817Z,1.22
2019-06-20T20:43:04.216Z,1.47
2019-06-20T20:45:33.632Z,1.80
2019-06-20T20:48:03.062Z,1.90
2019-06-20T20:50:32.388Z,1.25
2019-06-20T20:53:01.928Z,1.35
2019-06-20T20:55:31.263Z,1.40
2019-06-20T20:58:00.711Z,1.22
2019-06-20T21:00:35.896Z,1.92
2019-06-20T21:03:07.344Z,7.03
2019-06-20T21:05:50.653Z,1.70
2019-06-20T21:08:07.244Z,1.40
2019-06-20T21:10:36.581Z,1.20
2019-06-20T21:13:06.026Z,1.23
2019-06-20T21:15:35.322Z,1.20
2019-06-20T21:18:04.878Z,0.98
2019-06-20T21:20:34.176Z,1.30
2019-06-20T21:23:03.506Z,1.45
2019-06-20T21:25:32.838Z,1.42
2019-06-20T21:28:02.167Z,1.30
2019-06-20T21:30:31.529Z,1.17
2019-06-20T21:33:00.865Z,0.98
2019-06-20T21:35:30.263Z,0.60
2019-06-20T21:37:59.602Z,0.80
2019-06-20T21:40:29.023Z,0.90
2019-06-20T21:42:58.379Z,0.93
2019-06-20T21:45:27.851Z,0.93
2019-06-20T21:47:57.264Z,0.77
2019-06-20T21:50:26.651Z,0.70
2019-06-20T21:52:56.024Z,1.00
2019-06-20T21:55:25.338Z,1.02
2019-06-20T21:57:54.667Z,0.80
2019-06-20T22:00:31.196Z,1.15
2019-06-20T22:03:02.327Z,1.30
2019-06-20T22:05:31.745Z,1.05
2019-06-20T22:08:01.125Z,0.90
2019-06-20T22:10:30.587Z,0.90
2019-06-20T22:13:00.067Z,0.90
2019-06-20T22:15:29.513Z,0.93
2019-06-20T22:17:58.907Z,0.82
2019-06-20T22:20:28.524Z,1.10
2019-06-20T22:22:57.845Z,0.70
2019-06-20T22:25:27.471Z,0.82
2019-06-20T22:27:56.763Z,0.53
2019-06-20T22:30:44.588Z,0.90
2019-06-20T22:33:14.049Z,0.90
2019-06-20T22:35:45.973Z,0.70
2019-06-20T22:38:15.654Z,0.70
2019-06-20T22:40:47.061Z,0.70
2019-06-20T22:43:16.398Z,0.80
2019-06-20T22:45:45.862Z,0.80
2019-06-20T22:50:44.668Z,0.70
2019-06-20T22:53:15.115Z,1.00
2019-06-20T22:55:44.440Z,0.70
2019-06-20T22:58:13.742Z,1.02
2019-06-20T23:00:43.806Z,0.75
2019-06-20T23:03:13.184Z,0.88
2019-06-20T23:05:42.584Z,0.70
2019-06-20T23:08:11.880Z,1.22
2019-06-20T23:10:41.207Z,0.90
2019-06-20T23:13:10.536Z,1.05
2019-06-20T23:15:40.205Z,0.93
2019-06-20T23:18:09.499Z,0.78
2019-06-20T23:20:38.843Z,0.90
2019-06-20T23:23:08.147Z,0.90
2019-06-20T23:25:39.137Z,0.90
2019-06-20T23:28:08.532Z,0.80
2019-06-20T23:30:37.909Z,0.80
2019-06-20T23:33:07.269Z,0.90
2019-06-20T23:35:36.595Z,0.75
2019-06-20T23:38:05.963Z,0.72
2019-06-20T23:40:35.372Z,0.70
2019-06-20T23:43:04.920Z,0.60
2019-06-20T23:45:34.239Z,1.23
2019-06-20T23:48:03.635Z,0.78
2019-06-20T23:50:33.021Z,0.63
2019-06-20T23:53:03.962Z,0.88
2019-06-20T23:55:33.427Z,1.00
2019-06-20T23:58:02.905Z,0.77
